createdAt,value
2022-12-28T00:02:00.493Z,-3.11
2022-12-28T00:04:27.106Z,-3.08
2022-12-28T00:06:53.687Z,-3.10
2022-12-28T00:09:20.287Z,-3.13
2022-12-28T00:11:46.890Z,-3.16
2022-12-28T00:14:13.460Z,-3.27
2022-12-28T00:16:41.733Z,-3.31
2022-12-28T00:19:14.833Z,-3.28
2022-12-28T00:21:43.145Z,-3.38
2022-12-28T00:24:18.839Z,-3.44
2022-12-28T00:26:46.477Z,-3.29
2022-12-28T00:29:13.032Z,-3.20
2022-12-28T00:31:39.707Z,-3.19
2022-12-28T00:34:06.492Z,-3.19
2022-12-28T00:37:08.253Z,-3.36
2022-12-28T00:39:44.457Z,-3.40
2022-12-28T00:42:11.539Z,-3.28
2022-12-28T00:45:05.002Z,-3.43
2022-12-28T00:47:31.572Z,-3.51
2022-12-28T00:49:58.105Z,-3.54
2022-12-28T00:52:24.631Z,-3.56
2022-12-28T00:55:04.484Z,-3.59
2022-12-28T00:57:34.058Z,-3.76
2022-12-28T01:00:00.582Z,-3.82
2022-12-28T01:05:16.157Z,-3.83
2022-12-28T01:07:42.763Z,-3.61
2022-12-28T01:10:09.755Z,-3.55
2022-12-28T01:12:38.421Z,-3.54
2022-12-28T01:15:17.259Z,-3.51
2022-12-28T01:17:43.922Z,-3.47
2022-12-28T01:20:10.779Z,-3.55
2022-12-28T01:22:37.294Z,-3.54
2022-12-28T01:25:25.539Z,-3.62
2022-12-28T01:28:01.425Z,-3.63
2022-12-28T01:30:30.362Z,-3.81
2022-12-28T01:32:59.825Z,-3.76
2022-12-28T01:35:26.760Z,-3.77
2022-12-28T01:37:53.325Z,-3.84
2022-12-28T01:40:19.857Z,-3.71
2022-12-28T01:42:48.887Z,-3.61
2022-12-28T01:45:22.104Z,-3.62
2022-12-28T01:59:03.586Z,-3.78
2022-12-28T02:01:30.235Z,-3.76
2022-12-28T02:04:11.132Z,-3.81
2022-12-28T02:06:38.059Z,-3.83
2022-12-28T02:09:24.122Z,-3.77
2022-12-28T02:11:51.437Z,-3.75
2022-12-28T02:14:20.027Z,-3.79
2022-12-28T02:16:47.060Z,-3.70
2022-12-28T02:19:21.332Z,-3.68
2022-12-28T02:21:57.303Z,-3.70
2022-12-28T02:29:06.781Z,-3.80
2022-12-28T02:31:47.228Z,-3.93
2022-12-28T02:34:32.555Z,-3.99
2022-12-28T02:37:10.574Z,-3.96
2022-12-28T02:40:50.298Z,-3.99
2022-12-28T02:44:28.019Z,-3.96
2022-12-28T02:47:57.954Z,-4.05
2022-12-28T02:50:36.864Z,-4.00
2022-12-28T02:53:24.771Z,-4.03
2022-12-28T02:56:45.203Z,-4.10
2022-12-28T02:59:44.998Z,-3.93
2022-12-28T03:02:11.607Z,-3.88
2022-12-28T03:05:08.544Z,-3.94
2022-12-28T03:14:40.165Z,-3.80
2022-12-28T03:17:28.528Z,-3.74
2022-12-28T03:20:18.271Z,-3.64
2022-12-28T03:23:40.829Z,-3.77
2022-12-28T03:26:29.965Z,-3.69
2022-12-28T03:29:17.785Z,-3.87
2022-12-28T03:36:22.016Z,-3.84
2022-12-28T03:39:02.036Z,-3.86
2022-12-28T03:41:30.419Z,-3.87
2022-12-28T03:45:09.364Z,-3.85
2022-12-28T03:47:39.048Z,-3.74
2022-12-28T03:50:06.529Z,-3.75
2022-12-28T03:52:33.380Z,-3.81
2022-12-28T03:55:46.264Z,-3.77
2022-12-28T03:58:12.878Z,-3.80
2022-12-28T04:00:39.390Z,-3.76
2022-12-28T04:03:06.048Z,-3.79
2022-12-28T04:05:32.923Z,-3.94
2022-12-28T04:09:15.377Z,-4.01
2022-12-28T04:11:41.981Z,-4.04
2022-12-28T04:14:10.967Z,-4.10
2022-12-28T04:16:37.971Z,-4.06
2022-12-28T04:19:06.214Z,-3.99
2022-12-28T04:21:32.798Z,-4.00
2022-12-28T04:23:59.396Z,-3.90
2022-12-28T04:26:25.963Z,-3.84
2022-12-28T04:28:53.624Z,-3.77
2022-12-28T04:31:20.518Z,-3.63
2022-12-28T04:33:47.080Z,-3.43
2022-12-28T04:36:44.945Z,-3.41
2022-12-28T04:39:11.637Z,-3.41
2022-12-28T04:41:41.295Z,-3.33
2022-12-28T04:44:07.875Z,-3.37
2022-12-28T04:46:54.738Z,-3.35
2022-12-28T04:49:21.336Z,-3.31
2022-12-28T04:59:54.945Z,-3.37
2022-12-28T05:02:21.542Z,-3.30
2022-12-28T05:04:54.059Z,-3.14
2022-12-28T05:07:48.802Z,-3.10
2022-12-28T05:10:15.315Z,-3.09
2022-12-28T05:12:41.837Z,-3.14
2022-12-28T05:15:08.892Z,-3.11
2022-12-28T05:17:35.483Z,-3.17
2022-12-28T05:20:02.575Z,-3.13
2022-12-28T05:22:29.146Z,-3.20
2022-12-28T05:25:58.019Z,-3.13
2022-12-28T05:28:36.698Z,-3.26
2022-12-28T05:31:08.171Z,-3.23
2022-12-28T05:33:35.917Z,-3.23
2022-12-28T05:40:52.819Z,-3.27
2022-12-28T05:47:20.395Z,-3.16
2022-12-28T05:53:29.267Z,-3.13
2022-12-28T05:56:10.805Z,-3.18
2022-12-28T05:59:33.821Z,-3.21
2022-12-28T06:02:00.450Z,-3.31
2022-12-28T06:04:27.226Z,-3.40
2022-12-28T06:06:54.408Z,-3.56
2022-12-28T06:09:21.360Z,-3.62
2022-12-28T06:12:56.657Z,-3.76
2022-12-28T06:15:23.194Z,-3.88
2022-12-28T06:17:53.460Z,-3.90
2022-12-28T06:20:19.990Z,-3.88
2022-12-28T06:22:46.554Z,-3.90
2022-12-28T06:25:41.032Z,-3.80
2022-12-28T06:28:07.573Z,-3.72
2022-12-28T06:30:50.489Z,-3.62
2022-12-28T06:33:18.949Z,-3.59
2022-12-28T06:35:45.469Z,-3.49
2022-12-28T06:42:01.068Z,-3.26
2022-12-28T06:44:32.189Z,-3.11
2022-12-28T06:47:32.307Z,-2.94
2022-12-28T06:50:09.408Z,-2.77
2022-12-28T06:52:35.927Z,-0.88
2022-12-28T07:01:17.977Z,-1.91
2022-12-28T07:03:45.940Z,-2.06
2022-12-28T07:06:44.437Z,-2.10
2022-12-28T07:11:56.492Z,-2.05
2022-12-28T07:14:23.284Z,-2.07
2022-12-28T07:24:39.640Z,-1.65
2022-12-28T07:27:06.080Z,-1.61
2022-12-28T07:30:19.465Z,-1.60
2022-12-28T07:36:28.152Z,-1.42
2022-12-28T07:38:54.918Z,-1.46
2022-12-28T07:41:30.647Z,-1.36
2022-12-28T07:47:18.182Z,-1.25
2022-12-28T07:54:31.632Z,-1.20
2022-12-28T07:57:36.135Z,-1.09
2022-12-28T08:07:49.875Z,-0.59
2022-12-28T08:11:03.584Z,-0.62
2022-12-28T08:24:25.528Z,-0.14
2022-12-28T08:26:58.673Z,-0.17
2022-12-28T08:30:15.044Z,-0.01
2022-12-28T08:32:41.692Z,0.01
2022-12-28T08:35:08.564Z,0.18
2022-12-28T08:37:35.500Z,0.35
2022-12-28T08:43:16.884Z,0.36
2022-12-28T08:49:36.298Z,0.39
2022-12-28T08:52:18.840Z,0.59
2022-12-28T08:58:16.706Z,0.76
2022-12-28T09:03:29.743Z,1.02
2022-12-28T09:09:27.464Z,1.48
2022-12-28T09:11:56.673Z,1.73
2022-12-28T09:21:13.592Z,1.96
2022-12-28T09:23:44.014Z,2.02
2022-12-28T09:30:05.656Z,2.15
2022-12-28T09:32:32.217Z,2.49
2022-12-28T09:38:22.897Z,3.24
2022-12-28T09:52:08.261Z,4.15
2022-12-28T09:57:03.314Z,4.08
2022-12-28T09:58:16.514Z,4.69
2022-12-28T10:00:47.090Z,4.82
2022-12-28T10:03:23.081Z,5.10
2022-12-28T10:06:04.397Z,5.49
2022-12-28T10:08:45.546Z,5.44
2022-12-28T10:11:15.350Z,5.58
2022-12-28T10:13:57.160Z,5.69
2022-12-28T10:16:25.116Z,5.81
2022-12-28T10:18:52.125Z,5.85
2022-12-28T10:21:20.550Z,6.18
2022-12-28T10:24:29.000Z,6.56
2022-12-28T10:26:36.978Z,7.17
2022-12-28T10:29:04.836Z,7.41
2022-12-28T10:31:36.186Z,7.49
2022-12-28T10:34:17.595Z,8.00
2022-12-28T10:36:44.884Z,7.93
2022-12-28T10:39:16.858Z,8.50
2022-12-28T10:41:45.609Z,8.44
2022-12-28T10:54:28.173Z,9.59
2022-12-28T10:56:57.229Z,10.80
2022-12-28T10:59:28.289Z,12.43
2022-12-28T11:02:13.347Z,13.28
2022-12-28T11:04:52.149Z,13.08
2022-12-28T11:07:27.068Z,12.91
2022-12-28T11:09:53.491Z,12.93
2022-12-28T11:12:26.495Z,12.81
2022-12-28T11:14:53.108Z,12.92
2022-12-28T11:17:28.812Z,12.67
2022-12-28T11:20:01.334Z,12.30
2022-12-28T11:22:29.946Z,11.74
2022-12-28T11:25:00.417Z,11.33
2022-12-28T11:27:27.799Z,11.05
2022-12-28T11:29:55.599Z,11.02
2022-12-28T11:32:36.114Z,11.36
2022-12-28T11:35:03.246Z,11.27
2022-12-28T11:37:29.863Z,10.60
2022-12-28T11:39:59.621Z,10.63
2022-12-28T11:42:41.328Z,10.66
2022-12-28T11:45:35.812Z,10.65
2022-12-28T11:48:43.502Z,10.25
2022-12-28T11:51:20.604Z,10.49
2022-12-28T11:53:47.199Z,10.59
2022-12-28T11:56:22.762Z,10.00
2022-12-28T11:59:39.326Z,9.91
2022-12-28T12:02:08.418Z,9.88
2022-12-28T12:04:43.531Z,10.03
2022-12-28T12:07:45.091Z,10.30
2022-12-28T12:10:35.796Z,10.28
2022-12-28T12:13:24.577Z,9.78
2022-12-28T12:16:28.423Z,10.73
2022-12-28T12:20:12.320Z,12.24
2022-12-28T12:22:55.296Z,13.37
2022-12-28T12:25:54.160Z,14.01
2022-12-28T12:28:40.713Z,14.22
2022-12-28T12:33:58.629Z,14.17
2022-12-28T12:36:43.946Z,14.26
2022-12-28T12:39:16.619Z,14.39
2022-12-28T12:41:53.161Z,14.92
2022-12-28T12:44:30.268Z,14.75
2022-12-28T12:47:15.826Z,14.87
2022-12-28T12:49:52.244Z,14.72
2022-12-28T12:52:28.139Z,13.83
2022-12-28T12:55:10.060Z,13.26
2022-12-28T12:57:42.826Z,13.25
2022-12-28T13:00:19.707Z,13.23
2022-12-28T13:02:49.324Z,13.20
2022-12-28T13:05:32.183Z,12.77
2022-12-28T13:08:01.313Z,12.24
2022-12-28T13:10:33.796Z,11.43
2022-12-28T13:13:03.419Z,12.00
2022-12-28T13:15:30.786Z,11.98
2022-12-28T13:21:12.308Z,11.61
2022-12-28T13:23:44.801Z,11.38
2022-12-28T13:26:13.948Z,10.67
2022-12-28T13:28:50.892Z,9.96
2022-12-28T13:31:18.838Z,9.44
2022-12-28T13:34:12.859Z,9.16
2022-12-28T13:36:54.639Z,8.89
2022-12-28T13:39:21.182Z,8.66
2022-12-28T13:42:00.124Z,8.38
2022-12-28T13:44:26.643Z,8.12
2022-12-28T13:47:18.845Z,7.98
2022-12-28T13:50:00.658Z,7.87
2022-12-28T13:53:02.642Z,7.69
2022-12-28T13:55:34.635Z,7.55
2022-12-28T13:58:07.535Z,7.35
2022-12-28T14:00:36.712Z,7.15
2022-12-28T14:03:08.914Z,7.03
2022-12-28T14:05:35.614Z,6.95
2022-12-28T14:08:06.241Z,6.87
2022-12-28T14:10:35.607Z,6.77
2022-12-28T14:13:03.683Z,6.62
2022-12-28T14:15:35.856Z,6.53
2022-12-28T14:18:07.938Z,6.32
2022-12-28T14:20:49.879Z,6.16
2022-12-28T14:23:29.687Z,6.00
2022-12-28T14:25:57.735Z,5.82
2022-12-28T14:28:34.599Z,5.66
2022-12-28T14:31:10.376Z,5.55
2022-12-28T14:33:41.778Z,5.40
2022-12-28T14:36:18.275Z,5.21
2022-12-28T14:38:49.913Z,5.01
2022-12-28T14:41:20.879Z,4.78
2022-12-28T14:43:54.766Z,4.59
2022-12-28T14:46:38.977Z,4.38
2022-12-28T14:49:32.537Z,4.24
2022-12-28T14:52:08.329Z,4.08
2022-12-28T14:54:44.021Z,3.91
2022-12-28T14:57:33.299Z,3.65
2022-12-28T15:00:22.068Z,3.46
2022-12-28T15:02:49.029Z,3.25
2022-12-28T15:05:35.938Z,3.09
2022-12-28T15:08:14.498Z,2.92
2022-12-28T15:10:56.420Z,2.81
2022-12-28T15:13:25.674Z,3.94
2022-12-28T15:16:06.873Z,3.36
2022-12-28T15:18:38.458Z,2.89
2022-12-28T15:21:05.957Z,2.59
2022-12-28T15:23:33.473Z,2.32
2022-12-28T15:26:06.297Z,2.11
2022-12-28T15:28:32.990Z,1.88
2022-12-28T15:30:59.551Z,1.73
2022-12-28T15:33:26.607Z,1.69
2022-12-28T15:36:05.028Z,1.55
2022-12-28T15:38:32.160Z,1.51
2022-12-28T15:40:58.931Z,1.51
2022-12-28T15:43:25.478Z,1.54
2022-12-28T15:45:56.470Z,1.67
2022-12-28T15:48:23.418Z,1.70
2022-12-28T15:50:50.482Z,1.79
2022-12-28T15:53:17.560Z,1.87
2022-12-28T15:55:44.101Z,1.93
2022-12-28T15:58:10.666Z,1.96
2022-12-28T16:00:39.479Z,1.97
2022-12-28T16:03:09.388Z,2.06
2022-12-28T16:05:36.625Z,2.12
2022-12-28T16:08:03.214Z,2.11
2022-12-28T16:10:29.739Z,2.13
2022-12-28T16:12:56.770Z,2.09
2022-12-28T16:15:23.328Z,2.12
2022-12-28T16:17:56.852Z,2.16
2022-12-28T16:20:23.980Z,2.16
2022-12-28T16:22:50.558Z,2.28
2022-12-28T16:25:17.522Z,2.29
2022-12-28T16:27:44.312Z,2.30
2022-12-28T16:30:11.316Z,2.32
2022-12-28T16:32:37.861Z,2.30
2022-12-28T16:35:05.051Z,2.34
2022-12-28T16:37:31.701Z,2.35
2022-12-28T16:39:58.212Z,2.36
2022-12-28T16:42:24.692Z,2.32
2022-12-28T16:44:51.356Z,2.38
2022-12-28T16:47:17.829Z,2.34
2022-12-28T16:49:44.380Z,2.33
2022-12-28T16:52:10.952Z,2.32
2022-12-28T16:54:37.471Z,2.41
2022-12-28T16:57:04.071Z,2.35
2022-12-28T16:59:30.755Z,2.31
2022-12-28T17:01:58.931Z,2.30
2022-12-28T17:04:25.970Z,2.29
2022-12-28T17:06:53.118Z,2.26
2022-12-28T17:09:21.028Z,2.20
2022-12-28T17:11:49.237Z,2.16
2022-12-28T17:14:29.128Z,2.08
2022-12-28T17:17:02.919Z,1.94
2022-12-28T17:19:29.583Z,1.81
2022-12-28T17:21:56.085Z,1.68
2022-12-28T17:24:22.629Z,1.54
2022-12-28T17:26:49.212Z,1.43
2022-12-28T17:29:15.749Z,1.24
2022-12-28T17:31:43.786Z,1.15
2022-12-28T17:34:11.068Z,1.01
2022-12-28T17:36:37.610Z,0.96
2022-12-28T17:39:04.188Z,0.88
2022-12-28T17:41:30.705Z,0.92
2022-12-28T17:44:00.505Z,0.77
2022-12-28T17:46:29.432Z,0.64
2022-12-28T17:48:58.080Z,0.63
2022-12-28T17:51:26.356Z,0.52
2022-12-28T17:53:55.307Z,0.41
2022-12-28T17:56:22.084Z,0.42
2022-12-28T17:58:49.505Z,0.41
2022-12-28T18:01:16.309Z,0.44
2022-12-28T18:03:43.315Z,0.37
2022-12-28T18:06:10.110Z,0.21
2022-12-28T18:08:36.662Z,0.18
2022-12-28T18:11:03.227Z,0.15
2022-12-28T18:13:30.165Z,0.24
2022-12-28T18:15:56.893Z,0.28
2022-12-28T18:18:23.418Z,0.38
2022-12-28T18:21:01.416Z,0.46
2022-12-28T18:23:29.008Z,0.49
2022-12-28T18:26:07.598Z,0.57
2022-12-28T18:28:34.864Z,0.58
2022-12-28T18:31:02.780Z,0.51
2022-12-28T18:33:31.166Z,0.49
2022-12-28T18:35:59.037Z,0.43
2022-12-28T18:38:25.527Z,0.43
2022-12-28T18:40:57.604Z,0.51
2022-12-28T18:43:27.032Z,0.47
2022-12-28T18:45:54.735Z,0.52
2022-12-28T18:48:21.602Z,0.62
2022-12-28T18:50:54.276Z,0.59
2022-12-28T18:53:21.143Z,0.80
2022-12-28T18:55:47.557Z,0.97
2022-12-28T18:58:13.948Z,0.97
2022-12-28T19:00:40.335Z,0.91
2022-12-28T19:03:06.953Z,0.82
2022-12-28T19:05:33.484Z,0.68
2022-12-28T19:07:59.884Z,0.74
2022-12-28T19:10:26.249Z,0.90
2022-12-28T19:12:52.727Z,0.98
2022-12-28T19:15:19.237Z,0.89
2022-12-28T19:17:45.708Z,0.85
2022-12-28T19:20:12.167Z,0.71
2022-12-28T19:22:38.704Z,0.56
2022-12-28T19:25:05.418Z,0.49
2022-12-28T19:27:31.982Z,0.51
2022-12-28T19:29:58.411Z,0.45
2022-12-28T19:32:24.831Z,0.56
2022-12-28T19:34:51.367Z,0.68
2022-12-28T19:37:17.831Z,0.75
2022-12-28T19:39:44.315Z,0.86
2022-12-28T19:42:10.749Z,0.91
2022-12-28T19:44:37.331Z,0.92
2022-12-28T19:47:03.820Z,0.88
2022-12-28T19:49:30.380Z,0.68
2022-12-28T19:51:57.138Z,0.63
2022-12-28T19:54:23.898Z,0.56
2022-12-28T19:56:50.345Z,0.46
2022-12-28T19:59:17.027Z,0.51
2022-12-28T20:01:43.511Z,0.40
2022-12-28T20:04:14.038Z,0.41
2022-12-28T20:06:45.001Z,0.33
2022-12-28T20:09:13.858Z,0.30
2022-12-28T20:11:40.859Z,0.26
2022-12-28T20:14:07.870Z,0.13
2022-12-28T20:16:35.092Z,0.07
2022-12-28T20:19:01.943Z,0.04
2022-12-28T20:21:28.958Z,-0.04
2022-12-28T20:23:55.516Z,-0.06
2022-12-28T20:26:28.321Z,-0.18
2022-12-28T20:28:56.838Z,-0.24
2022-12-28T20:31:24.139Z,-0.34
2022-12-28T20:33:51.184Z,-0.44
2022-12-28T20:36:20.309Z,-0.45
2022-12-28T20:38:47.829Z,-0.44
2022-12-28T20:41:39.335Z,-0.58
2022-12-28T20:44:11.486Z,-0.56
2022-12-28T20:46:38.603Z,-0.56
2022-12-28T20:49:06.053Z,-0.65
2022-12-28T20:51:33.805Z,-0.68
2022-12-28T20:54:00.406Z,-0.69
2022-12-28T20:56:27.376Z,-0.76
2022-12-28T20:58:54.061Z,-0.85
2022-12-28T21:01:21.296Z,-0.96
2022-12-28T21:03:47.949Z,-0.97
2022-12-28T21:06:14.806Z,-1.00
2022-12-28T21:08:41.539Z,-1.03
2022-12-28T21:11:08.141Z,-1.06
2022-12-28T21:13:38.000Z,-1.09
2022-12-28T21:16:08.442Z,-1.07
2022-12-28T21:18:35.624Z,-1.12
2022-12-28T21:21:02.659Z,-1.28
2022-12-28T21:23:29.996Z,-1.35
2022-12-28T21:26:04.294Z,-1.35
2022-12-28T21:28:31.103Z,-1.30
2022-12-28T21:30:58.333Z,-1.26
2022-12-28T21:33:24.846Z,-1.27
2022-12-28T21:36:03.492Z,-1.26
2022-12-28T21:38:31.512Z,-1.27
2022-12-28T21:41:05.430Z,-1.34
2022-12-28T21:43:32.538Z,-1.43
2022-12-28T21:46:12.265Z,-1.48
2022-12-28T21:48:39.758Z,-1.48
2022-12-28T21:51:31.277Z,-1.51
2022-12-28T21:54:03.647Z,-1.45
2022-12-28T21:56:31.404Z,-1.48
2022-12-28T21:58:58.531Z,-1.48
2022-12-28T22:01:43.989Z,-1.46
2022-12-28T22:04:34.915Z,-1.59
2022-12-28T22:07:01.692Z,-1.65
2022-12-28T22:09:47.251Z,-1.58
2022-12-28T22:12:33.571Z,-1.69
2022-12-28T22:15:25.795Z,-1.67
2022-12-28T22:18:07.295Z,-1.69
2022-12-28T22:20:36.343Z,-1.69
2022-12-28T22:23:04.141Z,-1.80
2022-12-28T22:25:31.202Z,-1.81
2022-12-28T22:27:58.903Z,-1.82
2022-12-28T22:30:26.703Z,-1.79
2022-12-28T22:32:53.728Z,-1.78
2022-12-28T22:35:22.706Z,-1.79
2022-12-28T22:37:49.421Z,-1.78
2022-12-28T22:40:15.996Z,-1.85
2022-12-28T22:42:48.313Z,-1.79
2022-12-28T22:45:17.790Z,-1.87
2022-12-28T22:47:44.966Z,-1.86
2022-12-28T22:50:13.410Z,-1.82
2022-12-28T22:52:41.150Z,-1.84
2022-12-28T22:55:08.475Z,-1.85
2022-12-28T22:57:35.034Z,-1.88
2022-12-28T23:00:01.621Z,-1.87
2022-12-28T23:02:31.331Z,-1.81
2022-12-28T23:04:58.015Z,-1.82
2022-12-28T23:07:24.571Z,-1.82
2022-12-28T23:09:51.143Z,-1.82
2022-12-28T23:12:17.729Z,-1.82
2022-12-28T23:15:02.790Z,-1.81
2022-12-28T23:17:29.437Z,-1.79
2022-12-28T23:20:14.406Z,-1.85
2022-12-28T23:22:59.298Z,-1.98
2022-12-28T23:25:44.832Z,-1.90
2022-12-28T23:28:15.311Z,-1.99
2022-12-28T23:30:47.878Z,-1.97
2022-12-28T23:33:15.876Z,-2.01
2022-12-28T23:35:42.563Z,-1.97
2022-12-28T23:38:09.113Z,-1.98
2022-12-28T23:40:40.950Z,-1.98
2022-12-28T23:43:08.108Z,-1.96
2022-12-28T23:45:35.355Z,-1.96
2022-12-28T23:48:02.132Z,-1.97
2022-12-28T23:50:28.678Z,-1.97
2022-12-28T23:52:55.200Z,-2.06
2022-12-28T23:55:21.786Z,-2.05
2022-12-28T23:57:48.280Z,-2.14
